Historyczne dane pomiarowe

Dodano dane terminowe – wersja testowa.

Dane z okresu 1951-2019

Wersja bazy: 1.34 [2019-03-16, lista zmian], aktualizacja planowana na 2019-04-15

Dane meteo z obszaru Polski uzyskane na podstawie danych udostępnionych przez Instytut Meteorologii i Gospodarki Wodnej – Państwowy Instytut Badawczy.

 

Wybierz Datę:    

       

TemperaturaWilgotnośćWiatrCiśnienieOpadyŚniegCzas trwania zjawisk
 Stacja t tx tn tng RH VA  wxwx mslp ppp RRR   cm mm wxwxwxwxwxwxwx
1952-07-16 17.6 22.0 15.1 13.7 85.0- 5.7 2.3---- 1.2------------
1952-07-17 17.9 24.2 13.4 10.5 56.0- 4.3 1.7---- 0.0------------
1952-07-18 20.7 27.2 9.8 5.8 51.8- 1.0 2.0---- 2.3------------
1952-07-19 16.5 22.8 14.2 14.0 58.8- 6.7 4.0---- 0.0------------
1952-07-20 16.7 23.3 11.7 8.5 76.0- 5.3 3.0---- 0.0------------
1952-07-21 18.1 24.8 14.3 12.9 60.0- 3.0 3.3---- 0.0------------
1952-07-22 17.8 25.7 9.9 5.5 54.5- 0.3 2.0---- 0.0------------
1952-07-23 18.8 29.8 10.5 7.7 72.8- 2.7 3.0---- 6.8------------
1952-07-24 16.6 21.7 12.0 11.6 63.8- 5.7 2.3---- 0.0------------
1952-07-25 16.2 22.2 9.8 8.2 63.3- 5.7 2.3---- 0.1------------
1952-07-26 15.5 21.7 12.1 10.6 78.8- 5.3 0.7---- 0.9------------
1952-07-27 16.7 22.8 7.8 5.4 71.5- 3.3 1.3---- 0.0------------
1952-07-28 20.6 28.4 11.0 7.6 57.5- 1.0 1.7---- 0.0------------
1952-07-29 20.0 30.5 13.7 12.0 66.0- 6.7 3.7---- 0.1------------
1952-07-30 14.1 18.7 12.8 12.1 90.5- 5.3 1.3---- 1.0------------
1952-07-31 19.3 26.0 9.1 4.2 67.5- 4.7 1.7---- 0.0------------
1952-08-01 20.0 26.5 12.9 10.9 60.5- 1.3 2.0---- 0.0------------
1952-08-02 21.9 28.5 13.4 7.7 51.0- 1.7 0.7---- 0.0------------
1952-08-03 22.9 29.8 13.9 9.0 56.3- 1.0 1.0---- 0.0------------
1952-08-04 23.4 30.6 14.8 11.1 55.8- 1.3 1.7---- 0.0------------
1952-08-05 23.0 29.7 17.0 15.7 62.8- 3.7 1.7---- 0.0------------
1952-08-06 26.3 33.6 16.4 12.0 48.8- 0.3 1.3---- 0.0------------
1952-08-07 25.4 34.1 17.5 15.7 52.8- 6.0 2.0---- 0.0------------
1952-08-08 21.5 32.1 16.1 12.7 72.0- 7.3 2.7---- 0.9------------
1952-08-09 21.7 28.7 14.7 13.5 65.8- 5.0 1.7---- 0.0------------
1952-08-10 18.5 27.5 15.0 12.0 84.0- 6.3 2.7---- 3.2------------
1952-08-11 20.5 27.1 12.6 11.0 52.8- 3.3 2.0---- 0.0------------
1952-08-12 22.1 30.2 11.5 10.2 55.8- 2.3 2.3---- 0.0------------
1952-08-13 25.5 34.8 15.8 11.4 49.5- 0.7 0.7---- 0.0------------
1952-08-14 26.8 35.3 19.3 13.2 48.0- 0.0 1.0---- 0.0------------
82.0 ms

 

Źródłem pochodzenia danych jest Instytut Meteorologii i Gospodarki Wodnej – Państwowy Instytut Badawczy. Dane Instytutu Meteorologii i Gospodarki Wodnej – Państwowego Instytutu Badawczego zostały przetworzone.

Dane źródłowe można odnaleźć na stronie https://dane.imgw.pl